Time;durP1;ratioP1;P1;durP2;ratioP2;P2;SDS_P1;SDS_P2;PMS_P1;PMS_P2;Temp;Humidity;BMP_temperature;BMP_pressure;BME280_temperature;BME280_humidity;BME280_pressure;Samples;Min_cycle;Max_cycle;Signal;HPM_P1;HPM_P2
2022/05/24 00:02:20;;;;;;;;;1.00;1.00;;;;;16.09;54.87;100042.00;5058116;28;45446;-52
2022/05/24 00:04:46;;;;;;;;;2.00;2.00;;;;;16.07;54.74;100052.69;5059349;28;45310;-52
2022/05/24 00:07:11;;;;;;;;;2.00;1.25;;;;;16.05;54.47;100045.72;5059536;28;45239;-52
2022/05/24 00:09:37;;;;;;;;;3.00;1.00;;;;;16.01;54.44;100049.47;5059237;28;45248;-53
2022/05/24 00:12:03;;;;;;;;;3.75;2.25;;;;;15.97;54.89;100051.41;5059780;28;45292;-52
2022/05/24 00:17:13;;;;;;;;;3.00;3.00;;;;;15.95;54.55;100065.66;5059209;28;45259;-54
2022/05/24 00:19:38;;;;;;;;;2.75;2.25;;;;;15.91;54.95;100088.78;5059110;28;45287;-54
2022/05/24 00:22:03;;;;;;;;;2.00;2.00;;;;;15.85;54.56;100075.84;5059752;28;45265;-53
2022/05/24 00:24:29;;;;;;;;;2.00;2.00;;;;;15.84;54.42;100087.38;5059101;28;45210;-50
2022/05/24 00:26:54;;;;;;;;;2.00;2.00;;;;;15.82;54.53;100100.66;5058971;28;45915;-51
2022/05/24 00:29:19;;;;;;;;;3.00;3.00;;;;;15.81;54.81;100085.69;5058814;28;45198;-50
2022/05/24 00:31:45;;;;;;;;;1.50;1.50;;;;;15.79;54.93;100069.00;5059408;28;45300;-54
2022/05/24 00:34:10;;;;;;;;;3.00;3.00;;;;;15.79;54.73;100069.00;5059255;28;45219;-54
2022/05/24 00:36:36;;;;;;;;;1.00;1.00;;;;;15.76;54.83;100061.22;5059179;28;45485;-53
2022/05/24 00:39:01;;;;;;;;;2.00;2.00;;;;;15.75;54.44;100048.88;5058960;28;45331;-52
2022/05/24 00:41:31;;;;;;;;;3.25;2.00;;;;;15.70;54.33;100025.25;5062373;28;45314;-54
2022/05/24 00:44:09;;;;;;;;;2.00;2.00;;;;;15.73;54.24;100026.91;5062268;28;45394;-53
2022/05/24 00:46:43;;;;;;;;;2.75;2.00;;;;;15.73;54.65;100048.09;5062291;28;46437;-53
2022/05/24 00:49:20;;;;;;;;;2.50;2.50;;;;;15.67;54.33;100045.72;5062191;28;45173;-53
2022/05/24 00:51:55;;;;;;;;;1.75;1.75;;;;;15.69;54.68;100049.16;5076777;28;45353;-52
2022/05/24 00:54:21;;;;;;;;;2.50;2.50;;;;;15.66;54.58;100044.00;5082782;27;45135;-52
2022/05/24 00:56:49;;;;;;;;;1.75;1.25;;;;;15.65;54.57;100053.75;5082335;27;45469;-53
2022/05/24 00:59:26;;;;;;;;;1.75;1.75;;;;;15.64;54.32;100053.81;5081042;28;45786;-51
2022/05/24 01:01:51;;;;;;;;;2.00;2.00;;;;;15.62;54.35;100055.66;5064386;27;45359;-50
2022/05/24 01:04:19;;;;;;;;;2.00;1.00;;;;;15.59;54.23;100060.16;5072037;28;45313;-54
2022/05/24 01:06:45;;;;;;;;;2.50;1.00;;;;;15.62;54.60;100063.63;5064376;28;47090;-54
2022/05/24 01:09:19;;;;;;;;;3.00;2.00;;;;;15.61;53.95;100073.38;5081227;28;45889;-52
2022/05/24 01:11:49;;;;;;;;;1.00;1.00;;;;;15.60;54.48;100077.78;5077672;28;45345;-53
2022/05/24 01:14:19;;;;;;;;;2.25;2.25;;;;;15.54;54.02;100069.28;5074863;28;45469;-53
2022/05/24 01:16:44;;;;;;;;;3.25;2.00;;;;;15.55;54.15;100071.84;5081873;27;45438;-52
2022/05/24 01:19:17;;;;;;;;;3.25;1.50;;;;;15.53;53.75;100084.28;5082176;27;45298;-54
2022/05/24 01:21:43;;;;;;;;;8.25;3.00;;;;;15.51;54.38;100072.03;5082588;27;45200;-54
2022/05/24 01:24:25;;;;;;;;;1.75;0.75;;;;;15.47;53.88;100068.69;5081976;27;45492;-53
2022/05/24 01:26:54;;;;;;;;;2.25;1.00;;;;;15.42;54.13;100068.91;5081857;28;46277;-53
2022/05/24 01:29:22;;;;;;;;;1.00;1.00;;;;;15.43;54.20;100077.69;5080388;28;46013;-53
2022/05/24 01:37:18;;;;;;;;;0.75;0.75;;;;;15.30;54.15;100074.72;5081582;28;45349;-54
2022/05/24 01:39:47;;;;;;;;;1.25;1.25;;;;;15.25;54.38;100071.44;5081941;28;45381;-53
2022/05/24 01:42:13;;;;;;;;;2.25;1.00;;;;;15.20;53.76;100079.56;5080832;28;45576;-54
2022/05/24 01:44:57;;;;;;;;;1.75;1.75;;;;;15.19;54.25;100072.53;5081131;27;45426;-52
2022/05/24 01:47:24;;;;;;;;;1.25;1.25;;;;;15.17;54.23;100077.06;5081546;28;46141;-53
2022/05/24 01:49:55;;;;;;;;;2.25;2.00;;;;;15.15;54.22;100060.38;5081456;27;45223;-51
2022/05/24 01:52:46;;;;;;;;;2.50;1.00;;;;;15.16;53.82;100080.63;5081485;28;45483;-54
2022/05/24 01:55:16;;;;;;;;;1.50;1.50;;;;;15.11;54.36;100083.47;5081406;27;45488;-52
2022/05/24 01:57:46;;;;;;;;;2.50;1.50;;;;;15.08;53.76;100083.63;5081470;27;45321;-51
2022/05/24 02:00:14;;;;;;;;;1.75;0.75;;;;;15.05;54.28;100091.69;5077698;27;45362;-50
2022/05/24 02:02:41;;;;;;;;;2.25;1.75;;;;;15.02;54.23;100106.81;5061209;28;45273;-51
2022/05/24 02:05:07;;;;;;;;;0.75;0.75;;;;;14.99;53.85;100110.47;5061050;28;45228;-54
2022/05/24 02:07:33;;;;;;;;;1.50;0.75;;;;;14.97;54.28;100098.22;5061121;28;46336;-54
2022/05/24 02:09:58;;;;;;;;;0.75;0.75;;;;;14.94;53.90;100101.84;5059758;28;45257;-52
2022/05/24 02:12:38;;;;;;;;;3.50;1.75;;;;;14.93;54.05;100111.59;5061395;28;45278;-53
2022/05/24 02:15:22;;;;;;;;;1.00;0.75;;;;;14.89;54.08;100110.00;5060658;28;45420;-53
2022/05/24 02:17:54;;;;;;;;;1.75;1.50;;;;;14.83;54.31;100102.34;5059277;28;46169;-54
2022/05/24 02:20:23;;;;;;;;;2.75;1.25;;;;;14.82;53.76;100097.09;5061184;28;45288;-52
2022/05/24 02:22:49;;;;;;;;;5.25;2.00;;;;;14.74;53.83;100089.47;5060910;28;45322;-53
2022/05/24 02:25:32;;;;;;;;;2.00;2.00;;;;;14.68;54.31;100092.38;5068639;27;45323;-53
2022/05/24 02:27:57;;;;;;;;;2.00;1.25;;;;;14.65;54.47;100111.03;5081031;28;45326;-53
2022/05/24 02:30:27;;;;;;;;;1.25;1.25;;;;;14.62;54.12;100107.53;5076193;28;45308;-52
2022/05/24 02:32:52;;;;;;;;;2.00;0.75;;;;;14.59;54.27;100099.75;5079585;28;45290;-54
2022/05/24 02:35:18;;;;;;;;;1.00;1.00;;;;;14.55;54.02;100103.44;5080960;27;45238;-51
2022/05/24 02:37:44;;;;;;;;;0.50;0.50;;;;;14.49;54.00;100103.69;5080655;28;45361;-51
2022/05/24 02:42:54;;;;;;;;;1.00;1.00;;;;;14.42;54.53;100113.63;5080970;28;45239;-52
2022/05/24 02:45:20;;;;;;;;;1.50;1.50;;;;;14.39;54.58;100118.19;5080496;27;45422;-53
2022/05/24 02:47:45;;;;;;;;;2.75;1.25;;;;;14.37;54.70;100114.75;5080635;27;45431;-54
2022/05/24 02:50:12;;;;;;;;;0.50;0.50;;;;;14.35;54.65;100117.47;5080658;28;45224;-49
2022/05/24 02:52:39;;;;;;;;;1.25;1.25;;;;;14.30;54.58;100115.00;5081068;27;45440;-53
2022/05/24 02:55:05;;;;;;;;;1.00;1.00;;;;;14.25;54.64;100111.69;5080549;27;45334;-54
2022/05/24 02:57:31;;;;;;;;;0.00;0.00;;;;;14.28;54.91;100126.56;5080615;28;46356;-53
2022/05/24 02:59:56;;;;;;;;;1.25;0.50;;;;;14.25;54.18;100124.00;5078597;28;45272;-53
2022/05/24 03:02:21;;;;;;;;;1.25;1.25;;;;;14.22;54.65;100124.16;5059999;28;45236;-53
2022/05/24 03:04:47;;;;;;;;;1.00;1.00;;;;;14.27;54.29;100127.47;5060193;28;45195;-53
2022/05/24 03:09:56;;;;;;;;;1.25;1.25;;;;;14.24;54.57;100130.25;5080549;28;45275;-52
2022/05/24 03:15:06;;;;;;;;;1.50;0.75;;;;;14.21;54.57;100133.84;5080311;28;45425;-53
2022/05/24 03:17:32;;;;;;;;;2.50;1.50;;;;;14.19;54.35;100132.19;5079849;27;45298;-51
2022/05/24 03:19:57;;;;;;;;;0.75;0.00;;;;;14.19;54.76;100140.09;5080270;28;45298;-52
2022/05/24 03:22:22;;;;;;;;;2.00;2.00;;;;;14.18;54.72;100148.97;5075899;28;45396;-54
2022/05/24 03:24:48;;;;;;;;;1.75;1.75;;;;;14.18;54.64;100148.97;5080005;28;45210;-53
2022/05/24 03:27:13;;;;;;;;;2.00;2.00;;;;;14.19;54.66;100153.31;5080052;27;45378;-50
2022/05/24 03:29:43;;;;;;;;;1.00;0.50;;;;;14.18;54.45;100159.53;5080194;27;45247;-51
2022/05/24 03:32:11;;;;;;;;;3.50;2.75;;;;;14.18;54.68;100157.75;5080257;27;45468;-53
2022/05/24 03:34:37;;;;;;;;;5.25;0.50;;;;;14.21;54.95;100167.34;5080251;27;45395;-54
2022/05/24 03:37:03;;;;;;;;;2.00;2.00;;;;;14.22;54.88;100166.44;5079759;27;45317;-53
2022/05/24 03:39:28;;;;;;;;;2.25;1.50;;;;;14.18;54.99;100160.41;5080133;27;45391;-53
2022/05/24 03:41:54;;;;;;;;;5.25;2.50;;;;;14.22;54.75;100166.44;5080135;28;45217;-52
2022/05/24 03:44:20;;;;;;;;;1.50;1.50;;;;;14.23;54.66;100173.44;5080141;27;45205;-52
2022/05/24 03:46:46;;;;;;;;;1.50;1.50;;;;;14.22;54.69;100177.84;5079763;27;46400;-50
2022/05/24 03:49:14;;;;;;;;;1.25;1.00;;;;;14.22;54.42;100182.28;5079869;27;45354;-54
2022/05/24 03:51:40;;;;;;;;;1.75;1.75;;;;;14.19;54.51;100183.25;5080042;27;45375;-53
2022/05/24 03:54:06;;;;;;;;;0.50;0.50;;;;;14.18;54.88;100183.34;5079913;27;45578;-54
2022/05/24 03:56:32;;;;;;;;;2.50;1.50;;;;;14.12;54.63;100194.97;5079830;27;45169;-53
2022/05/24 03:58:58;;;;;;;;;1.25;1.00;;;;;14.10;55.03;100194.16;5078157;28;45308;-53
2022/05/24 04:01:23;;;;;;;;;2.00;1.50;;;;;14.11;54.50;100201.16;5066612;27;45542;-51
2022/05/24 04:03:48;;;;;;;;;2.25;2.00;;;;;14.10;54.90;100199.44;5059650;28;45216;-53
2022/05/24 04:06:14;;;;;;;;;1.00;1.00;;;;;14.12;54.42;100202.91;5059525;28;45211;-52
2022/05/24 04:08:39;;;;;;;;;3.00;3.00;;;;;14.12;54.49;100203.78;5059478;28;45189;-51
2022/05/24 04:11:09;;;;;;;;;1.75;1.75;;;;;14.12;54.85;100209.06;5059609;28;45217;-53
2022/05/24 04:13:36;;;;;;;;;1.50;1.50;;;;;14.13;54.49;100205.47;5059126;28;45600;-51
2022/05/24 04:16:01;;;;;;;;;1.50;1.50;;;;;14.12;54.72;100205.53;5061568;28;46373;-53
2022/05/24 04:18:27;;;;;;;;;2.50;2.50;;;;;14.15;54.64;100213.38;5062641;28;45289;-52
2022/05/24 04:20:52;;;;;;;;;2.25;2.25;;;;;14.17;54.90;100216.81;5062950;28;45431;-54
2022/05/24 04:23:19;;;;;;;;;3.00;3.00;;;;;14.16;54.46;100209.78;5062790;28;45186;-54
2022/05/24 04:25:45;;;;;;;;;3.50;3.00;;;;;14.13;54.49;100212.56;5061245;28;47490;-54
2022/05/24 04:28:11;;;;;;;;;2.50;2.50;;;;;14.12;54.87;100209.06;5062630;28;45273;-51
2022/05/24 04:30:36;;;;;;;;;2.25;0.75;;;;;14.10;54.71;100210.00;5062480;28;45493;-54
2022/05/24 04:33:02;;;;;;;;;1.50;1.50;;;;;14.08;54.53;100211.88;5062766;28;45360;-54
2022/05/24 04:35:27;;;;;;;;;4.75;3.25;;;;;14.08;54.69;100225.09;5062470;28;46228;-54
2022/05/24 04:37:53;;;;;;;;;3.25;3.00;;;;;14.05;55.05;100233.09;5062310;28;45249;-53
2022/05/24 04:40:18;;;;;;;;;3.50;2.25;;;;;14.06;54.71;100245.41;5073976;28;45371;-53
2022/05/24 04:42:44;;;;;;;;;6.25;3.00;;;;;14.01;54.61;100247.34;5082954;27;45308;-53
2022/05/24 04:45:14;;;;;;;;;1.50;1.50;;;;;13.95;54.88;100244.00;5077792;28;46837;-53
2022/05/24 04:47:40;;;;;;;;;2.25;0.50;;;;;13.90;55.16;100253.88;5081881;28;45249;-53
2022/05/24 04:50:10;;;;;;;;;2.00;2.00;;;;;13.88;54.93;100252.22;5081288;28;45224;-52
2022/05/24 04:52:40;;;;;;;;;3.50;3.00;;;;;13.81;55.04;100256.84;5082774;28;45314;-55
2022/05/24 04:55:09;;;;;;;;;2.00;2.00;;;;;13.79;55.02;100256.03;5082345;27;45471;-54
2022/05/24 04:57:34;;;;;;;;;1.00;1.00;;;;;13.72;55.00;100252.78;5082560;27;45481;-53
2022/05/24 04:59:59;;;;;;;;;4.00;3.00;;;;;13.72;54.73;100265.09;5080785;27;45402;-54
2022/05/24 05:02:26;;;;;;;;;1.00;1.00;;;;;13.67;55.21;100264.38;5061892;28;45453;-54
2022/05/24 05:04:52;;;;;;;;;2.25;2.25;;;;;13.63;55.07;100269.78;5061965;28;45483;-54
2022/05/24 05:07:21;;;;;;;;;2.50;1.50;;;;;13.61;54.92;100276.91;5062142;28;45293;-52
2022/05/24 05:09:50;;;;;;;;;1.00;1.00;;;;;13.61;55.16;100276.00;5062108;28;45362;-53
2022/05/24 05:12:17;;;;;;;;;3.75;2.75;;;;;13.61;55.07;100271.63;5044104;28;45324;-52
2022/05/24 05:14:43;;;;;;;;;2.00;1.00;;;;;13.65;55.22;100282.94;5061469;28;46872;-54
2022/05/24 05:17:09;;;;;;;;;1.00;1.00;;;;;13.68;54.97;100279.31;5061785;28;45219;-54
2022/05/24 05:19:34;;;;;;;;;1.00;1.00;;;;;13.64;54.87;100282.06;5062047;28;45354;-54
2022/05/24 05:22:02;;;;;;;;;2.00;1.50;;;;;13.63;55.33;100280.34;5061843;28;45390;-53
2022/05/24 05:24:27;;;;;;;;;1.50;1.25;;;;;13.65;54.92;100293.50;5061708;28;46377;-53
2022/05/24 05:26:53;;;;;;;;;2.00;1.00;;;;;13.61;55.09;100284.81;5060730;28;45343;-55
2022/05/24 05:31:16;;;;;;;;;2.00;2.00;;;;;13.66;55.08;100295.22;5061527;28;45856;-52
2022/05/24 05:32:04;;;;;;;;;1.75;1.75;;;;;13.67;55.07;100296.06;5061647;28;45441;-51
2022/05/24 05:34:29;;;;;;;;;1.00;1.00;;;;;13.64;55.18;100297.91;5061422;28;45369;-54
2022/05/24 05:36:55;;;;;;;;;1.00;1.00;;;;;13.63;54.89;100300.59;5071813;28;45358;-54
2022/05/24 05:39:20;;;;;;;;;1.75;1.75;;;;;13.64;54.85;100303.19;5081880;28;45351;-52
2022/05/24 05:41:45;;;;;;;;;0.50;0.50;;;;;13.68;54.89;100306.56;5081965;27;45562;-54
2022/05/24 05:44:11;;;;;;;;;2.50;1.25;;;;;13.70;54.91;100312.69;5081532;28;46372;-52
2022/05/24 05:46:36;;;;;;;;;1.00;1.00;;;;;13.71;55.15;100313.53;5081642;27;45327;-53
2022/05/24 05:49:02;;;;;;;;;2.50;2.50;;;;;13.74;55.22;100324.84;5081741;27;45403;-58
2022/05/24 05:51:27;;;;;;;;;2.50;2.00;;;;;13.76;54.95;100324.78;5069176;27;45298;-55
2022/05/24 05:53:52;;;;;;;;;1.50;1.50;;;;;13.76;55.03;100327.44;5071243;28;45411;-63
2022/05/24 05:56:21;;;;;;;;;1.50;1.50;;;;;13.79;54.93;100332.63;5070776;28;45414;-57
2022/05/24 05:58:49;;;;;;;;;3.25;3.00;;;;;13.86;55.21;100344.72;5070347;27;45477;-58
2022/05/24 06:01:16;;;;;;;;;1.00;1.00;;;;;13.84;55.03;100345.69;5071227;28;45311;-57
2022/05/24 06:03:42;;;;;;;;;1.00;1.00;;;;;13.86;55.13;100352.66;5069357;27;45224;-56
2022/05/24 06:06:10;;;;;;;;;3.00;2.00;;;;;13.87;55.16;100342.94;5077327;27;45417;-58
2022/05/24 06:08:36;;;;;;;;;2.50;2.00;;;;;13.84;54.89;100341.25;5074039;28;45465;-59
2022/05/24 06:11:02;;;;;;;;;2.25;1.00;;;;;13.87;54.76;100340.28;5071415;28;45181;-59
2022/05/24 06:13:28;;;;;;;;;2.50;1.25;;;;;13.89;55.01;100347.25;5069213;27;47182;-60
2022/05/24 06:15:55;;;;;;;;;2.50;2.00;;;;;13.89;54.82;100354.31;5077045;28;45348;-56
2022/05/24 06:18:20;;;;;;;;;2.25;1.75;;;;;13.89;54.94;100364.88;5072073;28;45360;-56
2022/05/24 06:20:45;;;;;;;;;1.00;1.00;;;;;13.86;54.66;100354.41;5068473;28;45364;-56
2022/05/24 06:23:11;;;;;;;;;1.25;1.25;;;;;13.90;54.99;100364.81;5073545;28;45600;-61
2022/05/24 06:25:36;;;;;;;;;1.50;1.50;;;;;13.88;54.89;100353.44;5070780;28;45318;-56
2022/05/24 06:28:01;;;;;;;;;1.00;1.00;;;;;13.93;54.91;100369.13;5075460;28;45452;-59
2022/05/24 06:30:28;;;;;;;;;1.75;1.00;;;;;13.90;55.01;100377.16;5077187;28;45638;-57
2022/05/24 06:32:54;;;;;;;;;1.00;1.00;;;;;13.91;54.68;100377.13;5071795;28;45453;-57
2022/05/24 06:35:20;;;;;;;;;1.00;1.00;;;;;14.00;54.90;100383.00;5075753;28;45335;-56
2022/05/24 06:37:48;;;;;;;;;3.50;2.00;;;;;14.02;54.25;100386.44;5071814;28;45437;-57
2022/05/24 06:40:17;;;;;;;;;1.50;1.50;;;;;14.07;54.87;100384.50;5060294;28;45508;-57
2022/05/24 06:42:42;;;;;;;;;2.25;2.25;;;;;14.10;54.60;100402.88;5072697;28;45623;-55
2022/05/24 06:45:08;;;;;;;;;1.00;0.00;;;;;14.11;54.40;100394.06;5076383;28;45301;-54
2022/05/24 06:47:34;;;;;;;;;1.00;1.00;;;;;14.11;54.93;100396.69;5079064;28;45521;-51
2022/05/24 06:50:00;;;;;;;;;3.00;1.00;;;;;14.17;54.44;100398.28;5079961;27;45219;-52
2022/05/24 06:52:25;;;;;;;;;2.00;1.00;;;;;14.17;54.11;100412.34;5078588;28;46974;-54
2022/05/24 06:54:53;;;;;;;;;2.00;2.00;;;;;14.16;54.54;100402.69;5080817;27;45223;-54
2022/05/24 06:57:18;;;;;;;;;1.75;1.25;;;;;14.18;54.59;100405.28;5067324;28;45417;-53
2022/05/24 07:02:27;;;;;;;;;1.50;1.00;;;;;14.21;54.61;100413.94;5080550;28;45694;-53
2022/05/24 07:04:57;;;;;;;;;0.00;0.00;;;;;14.25;54.43;100406.78;5064298;27;45258;-54
2022/05/24 07:07:24;;;;;;;;;0.50;0.50;;;;;14.32;54.24;100407.47;5060467;28;45231;-54
2022/05/24 07:09:50;;;;;;;;;1.00;1.00;;;;;14.38;54.22;100408.09;5080252;28;45399;-54
2022/05/24 07:12:23;;;;;;;;;2.00;1.00;;;;;14.42;54.08;100417.63;5080455;27;46141;-54
2022/05/24 07:14:49;;;;;;;;;1.50;0.25;;;;;14.41;54.10;100428.25;5080152;27;45196;-51
2022/05/24 07:17:17;;;;;;;;;1.50;0.50;;;;;14.43;54.22;100427.28;5080290;27;45274;-54
2022/05/24 07:19:43;;;;;;;;;1.25;1.25;;;;;14.42;53.89;100432.63;5079014;28;45588;-55
2022/05/24 07:22:09;;;;;;;;;2.25;1.00;;;;;14.34;54.26;100427.63;5080241;27;45370;-55
2022/05/24 07:24:34;;;;;;;;;3.00;1.50;;;;;14.39;54.34;100443.31;5080070;27;45297;-55
2022/05/24 07:27:00;;;;;;;;;2.50;2.50;;;;;14.41;53.63;100422.97;5080159;27;45472;-54
2022/05/24 07:29:26;;;;;;;;;3.50;1.50;;;;;14.48;53.43;100432.44;5080005;27;45452;-53
2022/05/24 07:31:51;;;;;;;;;2.00;1.50;;;;;14.49;53.85;100434.16;5080042;27;46115;-54
2022/05/24 07:34:17;;;;;;;;;2.00;2.00;;;;;14.51;53.89;100432.31;5080237;27;45230;-52
2022/05/24 07:36:43;;;;;;;;;2.00;2.00;;;;;14.54;53.57;100440.16;5078903;28;45445;-55
2022/05/24 07:39:08;;;;;;;;;0.00;0.00;;;;;14.55;53.59;100439.22;5080186;27;45248;-54
2022/05/24 07:47:06;;;;;;;;;0.50;0.25;;;;;14.69;53.29;100435.25;5080009;28;45412;-54
2022/05/24 07:49:33;;;;;;;;;2.00;0.50;;;;;14.67;53.51;100443.25;5081315;28;45452;-54
2022/05/24 07:51:58;;;;;;;;;2.00;2.00;;;;;14.66;53.29;100424.78;5083319;27;47074;-57
2022/05/24 07:54:24;;;;;;;;;2.50;0.00;;;;;14.71;53.60;100438.72;5078583;28;45373;-54
2022/05/24 07:56:50;;;;;;;;;2.00;0.75;;;;;14.81;53.39;100429.50;5076873;28;45456;-54
2022/05/24 07:59:15;;;;;;;;;0.75;0.75;;;;;14.87;53.35;100431.09;5072715;28;45570;-55
2022/05/24 08:01:40;;;;;;;;;2.00;0.50;;;;;14.93;53.25;100429.06;5071487;28;45310;-54
2022/05/24 08:04:06;;;;;;;;;2.75;0.75;;;;;14.98;53.18;100430.66;5074517;27;45320;-55
2022/05/24 08:06:31;;;;;;;;;0.75;0.00;;;;;15.01;52.72;100430.56;5063240;28;45348;-55
2022/05/24 08:08:57;;;;;;;;;1.00;1.00;;;;;15.06;53.15;100434.75;5063213;28;45252;-55
2022/05/24 08:11:22;;;;;;;;;1.00;1.00;;;;;15.09;52.97;100428.47;5062925;28;45341;-55
2022/05/24 08:13:47;;;;;;;;;2.50;0.00;;;;;15.16;52.76;100423.84;5062874;28;45203;-59
2022/05/24 08:16:13;;;;;;;;;1.25;1.00;;;;;15.18;52.49;100428.16;5062900;28;45145;-55
2022/05/24 08:18:38;;;;;;;;;1.00;0.75;;;;;15.21;52.27;100422.72;5069941;28;45507;-55
2022/05/24 08:21:04;;;;;;;;;1.50;0.00;;;;;15.30;52.45;100423.31;5083059;27;45386;-55
2022/05/24 08:23:30;;;;;;;;;4.00;1.50;;;;;15.35;52.73;100426.63;5083238;27;45162;-54
2022/05/24 08:25:56;;;;;;;;;1.50;1.00;;;;;15.39;52.35;100429.06;5082864;27;45279;-55
2022/05/24 08:28:22;;;;;;;;;1.25;0.50;;;;;15.46;52.44;100421.78;5081633;28;45507;-55
2022/05/24 08:30:50;;;;;;;;;0.00;0.00;;;;;15.52;52.32;100424.19;5082752;27;46243;-55
2022/05/24 08:33:17;;;;;;;;;0.75;0.75;;;;;15.53;52.16;100433.81;5082976;27;45399;-55
2022/05/24 08:35:44;;;;;;;;;1.00;0.50;;;;;15.57;52.32;100434.56;5080354;28;45269;-55
2022/05/24 08:38:12;;;;;;;;;0.50;0.50;;;;;15.62;52.19;100431.75;5082973;27;45537;-54
2022/05/24 08:40:40;;;;;;;;;2.50;1.75;;;;;15.68;52.16;100436.78;5082570;27;46700;-55
2022/05/24 08:43:08;;;;;;;;;0.75;0.75;;;;;15.72;51.99;100438.38;5078311;28;46013;-55
2022/05/24 08:48:41;;;;;;;;;0.00;0.00;;;;;15.83;51.97;100430.91;5082604;28;45250;-56
2022/05/24 08:51:06;;;;;;;;;0.50;0.00;;;;;15.88;51.63;100433.38;5081575;27;46037;-55
2022/05/24 08:53:39;;;;;;;;;4.50;2.25;;;;;15.90;51.49;100435.03;5077864;28;45345;-55
2022/05/24 08:56:07;;;;;;;;;0.75;0.75;;;;;15.97;51.34;100432.13;5077934;28;45287;-56
2022/05/24 08:58:39;;;;;;;;;1.00;1.00;;;;;15.95;51.27;100431.31;5080911;28;45400;-56
2022/05/24 09:01:14;;;;;;;;;0.50;0.25;;;;;15.99;51.14;100438.25;5079420;28;47150;-55
2022/05/24 09:03:39;;;;;;;;;1.00;1.00;;;;;16.05;50.90;100430.00;5069890;28;45266;-57
2022/05/24 09:06:20;;;;;;;;;1.00;1.00;;;;;16.11;50.65;100440.34;5079723;28;45267;-56
2022/05/24 09:09:13;;;;;;;;;0.00;0.00;;;;;16.15;51.05;100436.66;5082499;27;45314;-57
2022/05/24 09:11:41;;;;;;;;;2.75;2.00;;;;;16.18;50.50;100440.97;5080957;28;46242;-57
2022/05/24 09:14:17;;;;;;;;;0.50;0.50;;;;;16.19;50.89;100437.41;5081984;27;45304;-57
2022/05/24 09:16:52;;;;;;;;;2.75;1.25;;;;;16.23;50.23;100433.69;5080788;28;45368;-57
2022/05/24 09:19:23;;;;;;;;;4.75;2.00;;;;;16.24;50.49;100430.09;5082081;27;45218;-57
2022/05/24 09:21:52;;;;;;;;;3.00;2.00;;;;;16.30;50.57;100432.50;5082267;28;46665;-57
2022/05/24 09:24:41;;;;;;;;;0.75;0.75;;;;;16.35;50.28;100442.88;5082089;27;45288;-57
2022/05/24 09:27:08;;;;;;;;;2.00;2.00;;;;;16.44;50.03;100444.28;5081912;27;45280;-57
2022/05/24 09:30:05;;;;;;;;;0.25;0.00;;;;;16.45;49.71;100441.56;5081803;27;45620;-58
2022/05/24 09:32:43;;;;;;;;;1.00;1.00;;;;;16.45;50.02;100441.56;5080421;28;46444;-57
2022/05/24 09:35:08;;;;;;;;;3.00;1.75;;;;;16.49;49.55;100439.63;5081753;28;45290;-57
2022/05/24 09:37:35;;;;;;;;;2.00;0.75;;;;;16.53;49.79;100443.91;5077145;28;45312;-57
2022/05/24 09:40:21;;;;;;;;;1.00;1.00;;;;;16.54;49.63;100441.16;5077727;28;45192;-57
2022/05/24 09:42:47;;;;;;;;;0.50;0.50;;;;;16.54;49.58;100435.88;5081718;28;45551;-57
2022/05/24 09:45:17;;;;;;;;;0.75;0.75;;;;;16.61;49.28;100447.06;5081392;28;45336;-57
2022/05/24 09:47:45;;;;;;;;;0.25;0.25;;;;;16.62;49.34;100450.59;5082084;27;45224;-57
2022/05/24 09:50:32;;;;;;;;;1.00;0.50;;;;;16.63;49.01;100450.50;5081109;28;45228;-57
2022/05/24 09:53:03;;;;;;;;;0.75;0.75;;;;;16.68;48.92;100459.13;5081512;28;45357;-57
2022/05/24 09:55:46;;;;;;;;;1.00;1.00;;;;;16.70;48.68;100453.75;5077111;28;45457;-58
2022/05/24 09:58:27;;;;;;;;;1.00;0.75;;;;;16.72;48.50;100446.59;5080839;28;45480;-57
2022/05/24 10:00:56;;;;;;;;;2.00;2.00;;;;;16.82;48.46;100453.22;5081403;27;45489;-57
2022/05/24 10:03:25;;;;;;;;;2.00;1.00;;;;;16.93;48.20;100439.50;5073492;27;45302;-58
2022/05/24 10:06:25;;;;;;;;;0.50;0.50;;;;;17.10;48.00;100446.66;5060990;28;45469;-57
2022/05/24 10:08:53;;;;;;;;;1.00;1.00;;;;;17.09;48.02;100442.28;5050191;28;45439;-58
2022/05/24 10:11:31;;;;;;;;;1.00;1.00;;;;;17.21;47.77;100457.66;5067926;28;45193;-58
2022/05/24 10:14:04;;;;;;;;;3.00;1.00;;;;;17.24;48.16;100447.84;5081015;27;46413;-57
2022/05/24 10:16:44;;;;;;;;;1.25;1.00;;;;;17.22;47.95;100450.56;5081215;27;45320;-57
2022/05/24 10:19:09;;;;;;;;;1.50;0.50;;;;;17.18;47.69;100465.78;5079972;28;45264;-58
2022/05/24 10:21:49;;;;;;;;;1.75;1.00;;;;;17.18;47.41;100451.63;5081264;27;45321;-57
2022/05/24 10:24:33;;;;;;;;;1.00;1.00;;;;;17.20;47.47;100460.38;5081067;27;45181;-57
2022/05/24 10:27:13;;;;;;;;;2.25;0.75;;;;;17.21;47.77;100464.78;5080900;28;45201;-57
2022/05/24 10:29:58;;;;;;;;;0.25;0.25;;;;;17.27;47.13;100458.28;5076365;28;45454;-57
2022/05/24 10:39:16;;;;;;;;;0.75;0.75;;;;;17.50;46.88;100479.34;5067464;28;45314;-57
2022/05/24 10:42:05;;;;;;;;;0.00;0.00;;;;;17.55;46.74;100465.84;5080994;28;45522;-57
2022/05/24 10:44:50;;;;;;;;;1.25;1.00;;;;;17.60;46.58;100460.31;5079387;28;45535;-58
2022/05/24 10:47:31;;;;;;;;;0.00;0.00;;;;;17.61;46.22;100457.56;5080687;27;45207;-58
2022/05/24 10:50:06;;;;;;;;;0.00;0.00;;;;;17.68;46.30;100464.31;5075825;28;45411;-58
2022/05/24 10:52:38;;;;;;;;;1.00;0.75;;;;;17.71;46.00;100463.31;5073732;28;45476;-58
2022/05/24 10:55:10;;;;;;;;;0.00;0.00;;;;;17.70;46.07;100459.78;5080867;27;45314;-58
2022/05/24 10:57:54;;;;;;;;;1.25;0.75;;;;;17.67;46.06;100465.25;5080376;28;46141;-58
2022/05/24 11:00:23;;;;;;;;;1.00;1.00;;;;;17.74;45.94;100468.47;5080580;27;45413;-58
2022/05/24 11:03:30;;;;;;;;;1.25;1.00;;;;;17.93;45.95;100460.44;5076450;27;45262;-58
2022/05/24 11:06:01;;;;;;;;;0.75;0.75;;;;;18.15;45.92;100470.91;5038289;28;45513;-58
2022/05/24 11:09:10;;;;;;;;;0.50;0.50;;;;;18.41;46.08;100466.06;5079322;28;46259;-58
2022/05/24 11:12:02;;;;;;;;;3.00;1.00;;;;;18.65;45.78;100452.44;5079103;28;45347;-58
2022/05/24 11:14:34;;;;;;;;;0.00;0.00;;;;;18.79;45.83;100457.91;5075616;28;45358;-58
2022/05/24 11:17:00;;;;;;;;;1.00;0.25;;;;;19.00;45.19;100455.91;5073546;28;45324;-58
2022/05/24 11:19:36;;;;;;;;;2.75;1.00;;;;;19.16;45.20;100450.59;5080542;27;47090;-58
2022/05/24 11:22:06;;;;;;;;;1.00;1.00;;;;;19.23;45.42;100460.91;5080231;27;45340;-58
2022/05/24 11:24:37;;;;;;;;;1.75;1.00;;;;;19.29;44.90;100464.09;5079877;27;45303;-58
2022/05/24 11:27:06;;;;;;;;;2.00;0.50;;;;;19.37;44.64;100444.16;5080038;27;45366;-58
2022/05/24 11:29:56;;;;;;;;;1.00;1.00;;;;;19.46;44.95;100459.66;5079901;28;46863;-56
2022/05/24 11:32:36;;;;;;;;;0.50;0.50;;;;;19.41;44.81;100454.59;5079973;27;45513;-56
2022/05/24 11:35:25;;;;;;;;;1.00;1.00;;;;;19.45;44.41;100442.81;5076873;28;45367;-57
2022/05/24 11:37:55;;;;;;;;;3.00;1.00;;;;;19.55;44.05;100450.28;5075268;28;45272;-56
2022/05/24 11:40:34;;;;;;;;;1.00;1.00;;;;;19.57;44.17;100448.38;5078162;28;45393;-57
2022/05/24 11:43:03;;;;;;;;;1.00;1.00;;;;;19.56;43.79;100460.88;5075357;28;45336;-57
2022/05/24 11:45:29;;;;;;;;;0.25;0.25;;;;;19.66;44.28;100455.88;5065787;28;45328;-57
2022/05/24 11:47:54;;;;;;;;;1.00;1.00;;;;;19.70;43.84;100446.75;5079633;28;45520;-57
2022/05/24 11:50:31;;;;;;;;;1.50;1.00;;;;;19.75;43.95;100447.34;5079915;27;46962;-58
2022/05/24 11:53:03;;;;;;;;;1.00;1.00;;;;;19.73;43.84;100454.56;5078143;28;45689;-58
2022/05/24 11:55:43;;;;;;;;;0.75;0.75;;;;;19.86;43.50;100460.09;5080009;27;45519;-58
2022/05/24 11:58:21;;;;;;;;;2.00;1.00;;;;;20.07;43.61;100446.44;5079369;28;45230;-58
2022/05/24 12:01:14;;;;;;;;;0.00;0.00;;;;;20.27;43.62;100469.28;5079490;27;46145;-58
2022/05/24 12:10:05;;;;;;;;;1.25;1.00;;;;;20.72;42.52;100461.31;5079883;28;45425;-58
2022/05/24 12:12:45;;;;;;;;;0.50;0.50;;;;;20.82;42.69;100457.13;5079670;28;46604;-58
2022/05/24 12:15:31;;;;;;;;;1.00;1.00;;;;;20.97;42.54;100454.44;5074718;28;45256;-58
2022/05/24 12:17:59;;;;;;;;;0.00;0.00;;;;;21.11;42.44;100468.66;5066611;28;45561;-57